Jerusalem, Israel

7:04 AM IDT on July 31, 2015 (GMT +0300)
Nayot | | Change Station
CLOSE
Current Station
Personal Weather Station
Location: Jerusalem, Israel
Elevation: 2415 ft
Nearby Weather Stations

Elev 2415 ft 31.77 °N, 35.20 °E | Updated 5 seconds ago

Haze
Haze
75.4 °F
Feels Like 78 °F
N
0.0
Wind Variable Wind from North
Gusts 0.0 mph

Today
High -- | Low -- °F
--% Chance of Precip.
Yesterday
High -- | Low -- °F
Precip. -- in
5:53 AM 7:36 PM
Full, 100% visible
Pressure 29.86 in
Visibility 3.1 miles
Clouds Few 3000 ft
Heat Index 78 °F
Dew Point 52 °F
Humidity 44%
Rainfall 0.00 in
Snow Depth Not available.
UV 0.0 out of 12
Pollen Not available.
Air Quality Not available.
Flu Activity Not available.
METAR OJAM 310300Z 00000KT 5000 HZ FEW030 23/12 Q1011 NOSIG

More Conditions Fewer Conditions

Pressure 29.86 in
Visibility 3.1 miles
Clouds Few 3000 ft
Heat Index 78 °F
Dew Point 52 °F
Humidity 44%
Rainfall 0.00 in
Snow Depth Not available.
UV 0.0 out of 12
Pollen Not available.
Air Quality Not available.
Flu Activity Not available.
METAR OJAM 310300Z 00000KT 5000 HZ FEW030 23/12 Q1011 NOSIG

More Conditions Fewer Conditions

10-Day Weather Forecast

×

Almanac

Astronomy

Jul. 31, 2015 Rise Set
Actual Time
Civil Twilight
Nautical Twilight
Astronomical Twilight
Moon
Length of Visible Light
Length of Day
Tomorrow will be .
, % of the Moon is Illuminated

Today's Extremes

Country Highs Country Lows

Community

WunderPhotos

Upload Photos

1,842,602 photos uploaded!

WunderBlogs® & News

Nearby

Air Quality

  Air Quality AQ Index Pollutant
Not available.

Snow Depth

Station Depth Elevation

Earthquake Activity

City Distance Mag. Time & Date
Minimum magnitude displayed is 2.5.

Coastal Water Temperatures

Place Temperature

Stations

Nearby Weather Stations

Station Location Temp. Windchill Dew Point Humidity Wind Precip. Elev Updated Type